Time;durP1;ratioP1;P1;durP2;ratioP2;P2;SDS_P1;SDS_P2;PMS_P1;PMS_P2;Temp;Humidity;BMP_temperature;BMP_pressure;BME280_temperature;BME280_humidity;BME280_pressure;Samples;Min_cycle;Max_cycle;Signal;HPM_P1;HPM_P2
2022/03/12 00:02:21;;;;;;;4.53;1.20;;;8.90;82.40;;;;;;5034709;28;20488;-78
2022/03/12 00:04:47;;;;;;;4.32;1.00;;;8.80;82.50;;;;;;5035128;28;20028;-79
2022/03/12 00:07:14;;;;;;;4.28;1.35;;;8.70;82.60;;;;;;5035420;28;20044;-78
2022/03/12 00:09:40;;;;;;;5.72;1.10;;;8.70;82.70;;;;;;5034602;28;20092;-78
2022/03/12 00:12:07;;;;;;;2.97;1.60;;;8.60;82.60;;;;;;5034987;28;20029;-78
2022/03/12 00:14:35;;;;;;;3.35;1.48;;;8.60;83.00;;;;;;5033735;28;20081;-78
2022/03/12 00:17:01;;;;;;;3.50;1.25;;;8.60;83.10;;;;;;5035287;28;20029;-78
2022/03/12 00:19:27;;;;;;;3.20;1.40;;;8.70;82.90;;;;;;5035206;28;20021;-78
2022/03/12 00:21:55;;;;;;;2.88;1.25;;;8.70;82.50;;;;;;5034507;28;20030;-78
2022/03/12 00:24:21;;;;;;;1.98;0.85;;;8.70;82.20;;;;;;5041988;28;20028;-78
2022/03/12 00:26:49;;;;;;;2.85;1.00;;;8.70;82.30;;;;;;5054817;28;20045;-79
2022/03/12 00:29:16;;;;;;;3.55;1.20;;;8.70;82.30;;;;;;5055180;28;20113;-79
2022/03/12 00:31:48;;;;;;;5.78;1.20;;;8.60;82.20;;;;;;5046181;28;20017;-79
2022/03/12 00:34:14;;;;;;;6.22;1.77;;;8.50;82.50;;;;;;5037827;28;20026;-78
2022/03/12 00:36:41;;;;;;;2.33;1.02;;;8.50;82.80;;;;;;5037696;28;20053;-78
2022/03/12 00:39:09;;;;;;;5.63;1.10;;;8.40;82.60;;;;;;5038684;28;20033;-79
2022/03/12 00:41:36;;;;;;;6.45;1.27;;;8.40;82.70;;;;;;5038296;28;20027;-79
2022/03/12 00:44:02;;;;;;;4.95;1.20;;;8.30;83.10;;;;;;5038867;28;20029;-79
2022/03/12 00:46:28;;;;;;;7.30;1.88;;;8.30;83.50;;;;;;5038808;28;20105;-78
2022/03/12 00:48:54;;;;;;;4.72;1.20;;;8.30;83.20;;;;;;5038402;28;20572;-79
2022/03/12 00:51:20;;;;;;;3.33;1.20;;;8.20;83.10;;;;;;5038657;28;20041;-79
2022/03/12 00:53:45;;;;;;;8.35;1.23;;;8.30;83.30;;;;;;5038400;28;20051;-78
2022/03/12 00:56:11;;;;;;;4.78;1.40;;;8.20;83.20;;;;;;5037127;28;20037;-79
2022/03/12 00:58:38;;;;;;;4.28;1.17;;;8.20;83.40;;;;;;5038688;28;20040;-78
2022/03/12 01:01:05;;;;;;;6.05;1.67;;;8.30;83.00;;;;;;5037847;28;20483;-78
2022/03/12 01:03:31;;;;;;;2.72;1.27;;;8.30;82.80;;;;;;5037240;28;20033;-78
2022/03/12 01:06:00;;;;;;;6.38;1.48;;;8.30;83.10;;;;;;5037516;28;20144;-79
2022/03/12 01:08:27;;;;;;;2.58;1.20;;;8.30;83.00;;;;;;5038091;28;20141;-78
2022/03/12 01:10:56;;;;;;;3.67;1.42;;;8.20;83.50;;;;;;5036725;28;20045;-79
2022/03/12 01:13:21;;;;;;;2.92;1.23;;;8.20;83.50;;;;;;5038252;28;20029;-78
2022/03/12 01:15:48;;;;;;;3.85;1.30;;;8.30;83.70;;;;;;5038368;28;20029;-79
2022/03/12 01:18:16;;;;;;;8.13;1.60;;;8.40;82.90;;;;;;5037952;28;20029;-78
2022/03/12 01:20:42;;;;;;;3.65;1.10;;;8.50;82.70;;;;;;5038362;28;20025;-79
2022/03/12 01:23:09;;;;;;;8.20;1.80;;;8.50;82.30;;;;;;5040981;28;20032;-79
2022/03/12 01:25:35;;;;;;;5.10;1.55;;;8.50;81.90;;;;;;5056802;28;20116;-78
2022/03/12 01:28:01;;;;;;;2.97;1.08;;;8.30;82.50;;;;;;5058038;28;20680;-78
2022/03/12 01:30:29;;;;;;;8.27;1.80;;;8.20;82.70;;;;;;5057967;28;20032;-78
2022/03/12 01:32:56;;;;;;;7.00;1.35;;;8.20;82.80;;;;;;5042250;28;20099;-78
2022/03/12 01:35:24;;;;;;;4.63;1.20;;;8.20;82.50;;;;;;5018214;28;20026;-79
2022/03/12 01:37:49;;;;;;;9.88;1.27;;;8.20;83.20;;;;;;5018210;28;20022;-78
2022/03/12 01:40:15;;;;;;;6.15;1.30;;;8.20;82.80;;;;;;5035921;28;20037;-79
2022/03/12 01:42:43;;;;;;;5.00;1.52;;;8.20;82.70;;;;;;5037496;28;20033;-79
2022/03/12 01:45:13;;;;;;;4.03;1.25;;;8.00;83.10;;;;;;5035807;28;20555;-79
2022/03/12 01:47:40;;;;;;;7.45;1.00;;;8.00;83.20;;;;;;5036563;28;20036;-78
2022/03/12 01:50:07;;;;;;;5.00;1.25;;;8.00;83.40;;;;;;5037640;28;20025;-79
2022/03/12 01:52:32;;;;;;;5.47;1.42;;;8.00;83.40;;;;;;5035485;28;20492;-79
2022/03/12 01:54:59;;;;;;;4.68;1.20;;;7.90;83.40;;;;;;5037581;28;20392;-79
2022/03/12 01:57:25;;;;;;;2.03;1.20;;;8.00;83.90;;;;;;5037174;28;20136;-79
2022/03/12 01:59:51;;;;;;;3.90;1.60;;;8.00;83.80;;;;;;5037577;28;20061;-78
2022/03/12 02:02:17;;;;;;;2.42;1.02;;;8.00;83.50;;;;;;5036927;28;20040;-78
2022/03/12 02:04:51;;;;;;;3.42;1.40;;;8.00;83.60;;;;;;5037510;28;20506;-78
2022/03/12 02:07:18;;;;;;;4.55;1.45;;;8.00;83.60;;;;;;5036938;28;20032;-79
2022/03/12 02:09:44;;;;;;;6.20;1.45;;;7.90;84.00;;;;;;5036173;28;20031;-78
2022/03/12 02:12:11;;;;;;;9.25;1.67;;;7.90;83.90;;;;;;5037184;28;20060;-78
2022/03/12 02:14:37;;;;;;;2.85;1.20;;;7.90;84.00;;;;;;5037285;28;21175;-78
2022/03/12 02:17:11;;;;;;;1.73;0.88;;;7.90;84.30;;;;;;5036662;28;20064;-79
2022/03/12 02:19:39;;;;;;;5.97;1.08;;;8.00;84.00;;;;;;5037100;28;20022;-79
2022/03/12 02:22:04;;;;;;;3.25;1.00;;;8.00;83.90;;;;;;5035909;28;20026;-79
2022/03/12 02:24:32;;;;;;;5.85;1.52;;;8.00;84.20;;;;;;5047111;28;20041;-78
2022/03/12 02:27:00;;;;;;;5.13;1.85;;;7.90;84.10;;;;;;5036367;28;20049;-79
2022/03/12 02:29:27;;;;;;;4.50;1.85;;;7.90;84.40;;;;;;5036849;28;20029;-78
2022/03/12 02:31:56;;;;;;;5.28;1.52;;;7.80;84.50;;;;;;5036446;28;20033;-79
2022/03/12 02:34:31;;;;;;;2.50;1.27;;;7.80;84.80;;;;;;5036847;28;20025;-78
2022/03/12 02:36:57;;;;;;;8.45;1.17;;;7.80;84.70;;;;;;5035642;28;20021;-78
2022/03/12 02:39:27;;;;;;;9.00;1.77;;;7.80;84.90;;;;;;5036351;28;20033;-79
2022/03/12 02:41:55;;;;;;;5.13;1.20;;;7.70;85.20;;;;;;5036668;28;20048;-79
2022/03/12 02:44:23;;;;;;;4.55;1.40;;;7.70;85.50;;;;;;5035386;28;20046;-79
2022/03/12 02:47:11;;;;;;;10.07;1.40;;;7.80;85.40;;;;;;5036213;28;20076;-78
2022/03/12 02:49:39;;;;;;;7.07;1.55;;;7.90;85.10;;;;;;5036682;28;20033;-79
2022/03/12 02:52:05;;;;;;;8.25;1.70;;;7.90;85.20;;;;;;5036450;28;20021;-79
2022/03/12 02:54:31;;;;;;;4.72;1.40;;;7.80;85.40;;;;;;5033754;28;20042;-79
2022/03/12 02:56:59;;;;;;;7.13;1.60;;;7.80;85.60;;;;;;5035129;28;20033;-78
2022/03/12 02:59:25;;;;;;;7.30;1.75;;;7.90;85.60;;;;;;5035936;28;20084;-79
2022/03/12 03:01:51;;;;;;;5.80;1.42;;;7.90;85.40;;;;;;5036380;28;20033;-79
2022/03/12 03:04:20;;;;;;;13.18;2.10;;;8.00;85.20;;;;;;5036254;28;20040;-78
2022/03/12 03:06:45;;;;;;;6.80;2.22;;;7.90;85.30;;;;;;5035867;28;20401;-79
2022/03/12 03:09:11;;;;;;;2.55;1.30;;;7.90;85.00;;;;;;5035773;28;20040;-79
2022/03/12 03:11:39;;;;;;;6.70;1.67;;;7.90;85.10;;;;;;5034491;28;20076;-79
2022/03/12 03:14:07;;;;;;;8.13;1.75;;;7.80;85.20;;;;;;5036073;28;20025;-79
2022/03/12 03:16:33;;;;;;;6.82;1.63;;;7.80;85.50;;;;;;5035749;28;20434;-79
2022/03/12 03:18:59;;;;;;;10.13;1.85;;;7.80;85.60;;;;;;5036095;28;20025;-78
2022/03/12 03:21:26;;;;;;;6.53;1.58;;;7.80;85.10;;;;;;5035523;28;20026;-79
2022/03/12 03:23:53;;;;;;;3.78;1.40;;;7.80;85.40;;;;;;5045252;28;20037;-79
2022/03/12 03:26:42;;;;;;;5.00;1.67;;;7.70;85.50;;;;;;5055705;28;20021;-79
2022/03/12 03:29:08;;;;;;;6.82;1.77;;;7.60;85.70;;;;;;5033285;28;20108;-79
2022/03/12 03:31:35;;;;;;;8.10;1.40;;;7.70;85.80;;;;;;5035115;28;20021;-78
2022/03/12 03:34:00;;;;;;;5.40;1.30;;;7.70;85.70;;;;;;5034581;28;20031;-78
2022/03/12 03:36:26;;;;;;;6.45;1.55;;;7.70;85.40;;;;;;5035683;28;20018;-78
2022/03/12 03:38:52;;;;;;;6.00;1.50;;;7.80;85.20;;;;;;5035230;28;20033;-78
2022/03/12 03:41:18;;;;;;;4.18;1.40;;;7.80;84.90;;;;;;5035444;28;20017;-79
2022/03/12 03:43:46;;;;;;;8.13;1.45;;;7.70;85.10;;;;;;5034936;28;20029;-79
2022/03/12 03:46:17;;;;;;;5.72;1.63;;;7.80;84.90;;;;;;5035570;28;20067;-79
2022/03/12 03:48:46;;;;;;;10.75;1.88;;;7.80;84.60;;;;;;5035558;28;20036;-79
2022/03/12 03:51:12;;;;;;;9.48;1.88;;;7.80;84.60;;;;;;5034958;28;20786;-79
2022/03/12 03:53:37;;;;;;;14.27;2.00;;;7.80;84.40;;;;;;5035438;28;20143;-79
2022/03/12 03:56:04;;;;;;;8.07;1.80;;;7.80;84.30;;;;;;5035067;28;20029;-79
2022/03/12 03:58:32;;;;;;;9.40;1.85;;;7.80;84.20;;;;;;5035413;28;20026;-79
2022/03/12 04:01:06;;;;;;;8.27;1.80;;;7.80;83.90;;;;;;5034899;28;20025;-79
2022/03/12 04:03:34;;;;;;;9.63;1.90;;;7.80;84.00;;;;;;5035440;28;20067;-79
2022/03/12 04:06:02;;;;;;;6.38;1.63;;;7.80;83.90;;;;;;5035144;28;20039;-79
2022/03/12 04:08:29;;;;;;;6.75;1.90;;;7.70;84.00;;;;;;5035278;28;20025;-79
2022/03/12 04:10:55;;;;;;;2.55;1.40;;;7.80;84.20;;;;;;5034444;28;20060;-78
2022/03/12 04:13:22;;;;;;;6.55;1.98;;;7.90;84.10;;;;;;5035209;28;20116;-79
2022/03/12 04:15:50;;;;;;;10.57;2.22;;;8.00;83.70;;;;;;5034890;28;20135;-79
2022/03/12 04:18:18;;;;;;;7.32;1.70;;;8.20;83.40;;;;;;5035241;28;20037;-79
2022/03/12 04:20:47;;;;;;;7.15;2.05;;;8.20;83.10;;;;;;5035171;28;20026;-79
2022/03/12 04:23:25;;;;;;;7.43;1.90;;;8.30;82.80;;;;;;5037763;28;20125;-79
2022/03/12 04:25:53;;;;;;;6.70;1.40;;;8.40;82.40;;;;;;5036185;28;20037;-78
2022/03/12 04:28:21;;;;;;;6.22;1.75;;;8.30;82.10;;;;;;5035144;28;20036;-79
2022/03/12 04:30:47;;;;;;;6.90;1.67;;;8.40;82.30;;;;;;5035009;28;20446;-79
2022/03/12 04:33:14;;;;;;;3.42;1.35;;;8.50;82.30;;;;;;5032998;28;20566;-79
2022/03/12 04:35:42;;;;;;;8.02;1.70;;;8.40;82.20;;;;;;5033990;28;20496;-79
2022/03/12 04:38:09;;;;;;;7.47;1.50;;;8.40;82.30;;;;;;5034966;28;20104;-79
2022/03/12 04:40:38;;;;;;;9.23;2.00;;;8.30;82.70;;;;;;5034323;28;20024;-79
2022/03/12 04:43:06;;;;;;;5.82;1.73;;;8.30;83.00;;;;;;5033622;28;20029;-79
2022/03/12 04:45:32;;;;;;;5.85;2.22;;;8.20;83.10;;;;;;5033620;28;20034;-78
2022/03/12 04:47:58;;;;;;;5.80;1.42;;;8.20;83.10;;;;;;5033378;28;20036;-79
2022/03/12 04:50:24;;;;;;;6.32;1.67;;;8.10;83.00;;;;;;5034821;28;20021;-79
2022/03/12 04:52:52;;;;;;;4.43;1.48;;;8.00;83.40;;;;;;5034593;28;20025;-79
2022/03/12 04:55:20;;;;;;;9.48;2.03;;;8.00;83.20;;;;;;5033378;28;20536;-79
2022/03/12 04:57:46;;;;;;;9.38;1.95;;;8.00;83.40;;;;;;5034873;28;20035;-79
2022/03/12 05:00:27;;;;;;;4.40;1.50;;;8.00;83.70;;;;;;5034807;28;20068;-79
2022/03/12 05:03:08;;;;;;;9.02;2.33;;;7.90;83.70;;;;;;5034369;28;20060;-79
2022/03/12 05:05:39;;;;;;;5.65;1.70;;;7.90;83.80;;;;;;5033650;28;20063;-79
2022/03/12 05:08:05;;;;;;;;;;;7.80;83.90;;;;;;5035100;28;20048;-79
2022/03/12 05:10:30;;;;;;;5.50;1.98;;;7.80;84.20;;;;;;5033997;28;20298;-79
2022/03/12 05:13:00;;;;;;;10.15;2.65;;;7.80;84.20;;;;;;5034541;28;20021;-79
2022/03/12 05:15:34;;;;;;;6.28;1.60;;;7.80;84.30;;;;;;5034776;28;20025;-79
2022/03/12 05:18:00;;;;;;;6.35;1.92;;;7.70;84.90;;;;;;5035091;28;20391;-79
2022/03/12 05:20:28;;;;;;;6.95;1.85;;;7.80;84.90;;;;;;5037575;28;20091;-79
2022/03/12 05:22:54;;;;;;;7.95;2.17;;;7.70;85.30;;;;;;5039532;28;20029;-79
2022/03/12 05:25:20;;;;;;;11.75;1.85;;;7.80;85.40;;;;;;5054420;28;20394;-79
2022/03/12 05:27:51;;;;;;;7.18;1.75;;;7.70;85.60;;;;;;5038312;28;20064;-79
2022/03/12 05:30:17;;;;;;;9.30;2.40;;;7.80;85.80;;;;;;5037642;28;20041;-79
2022/03/12 05:32:43;;;;;;;6.93;1.63;;;7.80;85.70;;;;;;5037958;28;20090;-79
2022/03/12 05:35:09;;;;;;;8.15;2.10;;;7.80;85.40;;;;;;5037922;28;20025;-79
2022/03/12 05:37:36;;;;;;;4.57;1.67;;;7.70;85.70;;;;;;5037536;28;20067;-79
2022/03/12 05:40:04;;;;;;;7.85;1.83;;;7.70;86.00;;;;;;5037740;28;20033;-79
2022/03/12 05:42:31;;;;;;;9.43;2.20;;;7.70;85.70;;;;;;5037806;28;20014;-79
2022/03/12 05:44:57;;;;;;;8.85;1.65;;;7.70;86.00;;;;;;5037823;28;20022;-79
2022/03/12 05:47:24;;;;;;;6.53;2.28;;;7.70;85.80;;;;;;5037231;28;20032;-79
2022/03/12 05:49:49;;;;;;;8.68;2.08;;;7.60;85.60;;;;;;5035547;28;20083;-79
2022/03/12 05:52:17;;;;;;;7.18;1.83;;;7.60;85.60;;;;;;5037563;28;20021;-79
2022/03/12 05:54:46;;;;;;;11.02;1.80;;;7.60;85.60;;;;;;5037236;28;20074;-79
2022/03/12 05:57:13;;;;;;;9.07;2.07;;;7.50;85.70;;;;;;5037493;28;20080;-79
2022/03/12 05:59:38;;;;;;;7.90;1.70;;;7.50;85.70;;;;;;5035606;28;20291;-79
2022/03/12 06:02:04;;;;;;;8.98;1.85;;;7.50;85.60;;;;;;5036089;28;20392;-79
2022/03/12 06:04:30;;;;;;;16.90;2.72;;;7.50;85.60;;;;;;5035216;28;20063;-79
2022/03/12 06:06:56;;;;;;;14.27;2.13;;;7.50;85.50;;;;;;5036769;28;20157;-79
2022/03/12 06:09:22;;;;;;;9.55;1.92;;;7.50;85.20;;;;;;5037288;28;20404;-79
2022/03/12 06:11:52;;;;;;;10.88;1.88;;;7.50;85.20;;;;;;5036904;28;20107;-79
2022/03/12 06:14:18;;;;;;;9.13;2.10;;;7.50;85.20;;;;;;5036717;28;20399;-79
2022/03/12 06:16:46;;;;;;;7.47;2.20;;;7.40;85.20;;;;;;5035852;28;20038;-79
2022/03/12 06:19:12;;;;;;;9.90;1.83;;;7.50;85.10;;;;;;5035551;28;20519;-79
2022/03/12 06:21:37;;;;;;;15.70;2.13;;;7.40;85.10;;;;;;5037082;28;20025;-79
2022/03/12 06:24:03;;;;;;;5.60;1.70;;;7.40;85.10;;;;;;5045968;28;20063;-79
2022/03/12 06:26:35;;;;;;;10.07;2.15;;;7.40;85.00;;;;;;5051825;28;20534;-79
2022/03/12 06:29:03;;;;;;;8.25;1.73;;;7.40;85.10;;;;;;5037154;28;20030;-79
2022/03/12 06:31:31;;;;;;;11.32;2.42;;;7.30;85.10;;;;;;5036256;28;20469;-79
2022/03/12 06:33:58;;;;;;;8.10;1.92;;;7.30;85.20;;;;;;5035491;28;20014;-79
2022/03/12 06:36:25;;;;;;;14.02;2.33;;;7.20;85.50;;;;;;5025954;28;20018;-79
2022/03/12 06:38:50;;;;;;;9.15;1.70;;;7.20;85.30;;;;;;5036098;28;20025;-79
2022/03/12 06:41:20;;;;;;;6.63;2.17;;;7.20;85.40;;;;;;5036606;28;20036;-79
2022/03/12 06:43:46;;;;;;;11.63;2.30;;;7.20;85.60;;;;;;5036172;28;20078;-79
2022/03/12 06:46:14;;;;;;;10.68;2.35;;;7.30;85.20;;;;;;5036641;28;20029;-79
2022/03/12 06:48:42;;;;;;;10.52;2.60;;;7.30;85.30;;;;;;5036483;28;20025;-79
2022/03/12 06:51:10;;;;;;;5.97;1.98;;;7.30;85.10;;;;;;5035768;28;20056;-80
2022/03/12 06:53:37;;;;;;;12.20;3.10;;;7.20;85.20;;;;;;5016902;28;20014;-81
2022/03/12 06:56:03;;;;;;;12.23;2.40;;;7.20;85.40;;;;;;5022573;28;20021;-82
2022/03/12 06:58:29;;;;;;;10.45;2.53;;;7.20;85.20;;;;;;5016563;28;20022;-79
2022/03/12 07:00:56;;;;;;;10.35;2.28;;;7.30;85.10;;;;;;5016475;28;20053;-78
2022/03/12 07:03:22;;;;;;;7.80;2.10;;;7.40;84.60;;;;;;5019644;28;20579;-78
2022/03/12 07:05:48;;;;;;;11.63;2.60;;;7.40;84.50;;;;;;5036276;28;20057;-79
2022/03/12 07:08:14;;;;;;;6.95;2.38;;;7.40;84.40;;;;;;5033906;28;20044;-80
2022/03/12 07:10:40;;;;;;;8.20;2.53;;;7.40;84.40;;;;;;5035931;28;20052;-82
2022/03/12 07:13:06;;;;;;;8.05;2.22;;;7.50;84.00;;;;;;5035308;28;20022;-79
2022/03/12 07:15:32;;;;;;;9.48;2.40;;;7.60;83.90;;;;;;5035298;28;20488;-80
2022/03/12 07:17:57;;;;;;;8.85;2.40;;;8.30;82.30;;;;;;5036286;28;20029;-80
2022/03/12 07:20:23;;;;;;;11.82;2.58;;;9.30;79.60;;;;;;5036048;28;20041;-80
2022/03/12 07:22:49;;;;;;;8.15;2.95;;;9.90;76.40;;;;;;5036291;28;20171;-81
2022/03/12 07:25:16;;;;;;;11.52;2.60;;;10.30;76.00;;;;;;5048434;28;20030;-81
2022/03/12 07:27:42;;;;;;;10.38;2.83;;;11.20;72.60;;;;;;5036057;28;20037;-82
2022/03/12 07:30:10;;;;;;;9.55;1.95;;;12.20;69.30;;;;;;5034916;28;20033;-81
2022/03/12 07:32:36;;;;;;;11.40;2.47;;;13.20;66.10;;;;;;5036377;28;20387;-82
2022/03/12 07:35:03;;;;;;;5.93;1.98;;;13.90;63.50;;;;;;5035193;28;20021;-79
2022/03/12 07:37:29;;;;;;;8.75;1.65;;;14.30;60.80;;;;;;5036448;28;20043;-81
2022/03/12 07:39:55;;;;;;;8.55;2.33;;;14.90;59.60;;;;;;5035039;28;20107;-78
2022/03/12 07:42:21;;;;;;;9.02;1.90;;;15.30;57.10;;;;;;5033390;28;20039;-80
2022/03/12 07:44:47;;;;;;;11.73;2.72;;;15.10;58.20;;;;;;5033598;28;20399;-83
2022/03/12 07:47:13;;;;;;;5.47;1.30;;;15.50;57.10;;;;;;5027793;28;20033;-78
2022/03/12 07:49:38;;;;;;;12.00;2.08;;;16.00;55.80;;;;;;5033374;28;20063;-84
2022/03/12 07:52:06;;;;;;;8.27;1.70;;;16.40;55.30;;;;;;5034089;28;20055;-82
2022/03/12 07:54:32;;;;;;;10.23;2.00;;;16.60;54.10;;;;;;5034478;28;20527;-83
2022/03/12 07:56:58;;;;;;;6.75;2.17;;;17.20;53.60;;;;;;5034421;28;20026;-81
2022/03/12 07:59:27;;;;;;;10.40;2.13;;;17.60;52.00;;;;;;5034999;28;20018;-82
2022/03/12 08:01:52;;;;;;;8.95;2.15;;;17.80;50.90;;;;;;5033132;28;20563;-83
2022/03/12 08:04:18;;;;;;;6.78;1.80;;;17.60;51.90;;;;;;5034798;28;20129;-82
2022/03/12 08:06:44;;;;;;;12.95;2.42;;;17.50;51.70;;;;;;5035012;28;20109;-82
2022/03/12 08:09:10;;;;;;;10.70;2.28;;;17.40;52.30;;;;;;5028091;28;20029;-82
2022/03/12 08:11:35;;;;;;;7.43;1.70;;;17.90;52.50;;;;;;5029533;28;20055;-83
2022/03/12 08:18:19;;;;;;;9.80;2.20;;;18.00;51.80;;;;;;5070514;28;20402;-85
2022/03/12 08:20:45;;;;;;;10.35;1.95;;;17.30;53.40;;;;;;5058875;28;20041;-83
2022/03/12 08:23:12;;;;;;;6.80;1.60;;;17.30;52.60;;;;;;5062855;28;20021;-81
2022/03/12 08:25:37;;;;;;;8.18;2.38;;;17.20;53.10;;;;;;5061214;28;20090;-84
2022/03/12 08:28:03;;;;;;;7.30;1.80;;;17.40;52.90;;;;;;5061229;28;20025;-86
2022/03/12 08:30:29;;;;;;;16.38;2.30;;;17.90;53.30;;;;;;5062483;28;20052;-87
2022/03/12 08:32:55;;;;;;;11.88;2.20;;;18.10;53.20;;;;;;5059572;28;20021;-82
2022/03/12 08:35:21;;;;;;;12.10;2.15;;;17.00;53.60;;;;;;5055525;28;20031;-83
2022/03/12 08:37:47;;;;;;;9.70;1.80;;;16.70;54.50;;;;;;5050162;28;20408;-81
2022/03/12 08:40:14;;;;;;;10.30;2.13;;;15.80;57.20;;;;;;5051078;28;20029;-81
2022/03/12 08:42:40;;;;;;;11.90;2.60;;;15.70;58.50;;;;;;5046132;28;20468;-81
2022/03/12 08:45:07;;;;;;;6.07;2.47;;;15.50;58.90;;;;;;5052068;28;20053;-82
2022/03/12 08:47:34;;;;;;;5.18;1.90;;;16.10;58.00;;;;;;5046391;28;20036;-81
2022/03/12 08:50:00;;;;;;;10.07;2.25;;;17.40;54.90;;;;;;5048164;28;20037;-82
2022/03/12 08:52:26;;;;;;;10.70;2.53;;;18.20;52.90;;;;;;5045233;28;20056;-82
2022/03/12 08:54:51;;;;;;;12.38;2.83;;;18.80;50.90;;;;;;5067802;28;20044;-83
2022/03/12 08:57:17;;;;;;;11.65;2.30;;;18.80;50.40;;;;;;5054418;28;20406;-82
2022/03/12 08:59:43;;;;;;;11.82;2.53;;;18.90;50.50;;;;;;5055703;28;20036;-83
2022/03/12 09:02:09;;;;;;;9.70;2.22;;;19.00;48.90;;;;;;5054656;28;20021;-83
2022/03/12 09:04:35;;;;;;;12.57;3.88;;;19.40;49.40;;;;;;5053975;28;20025;-83
2022/03/12 09:07:01;;;;;;;10.35;2.20;;;19.90;47.00;;;;;;5050407;28;20040;-82
2022/03/12 09:09:27;;;;;;;10.43;2.33;;;20.00;47.90;;;;;;5048457;28;20029;-82
2022/03/12 09:11:52;;;;;;;8.60;2.35;;;19.20;48.70;;;;;;5051093;28;20380;-83
2022/03/12 09:14:18;;;;;;;8.77;2.40;;;19.40;48.50;;;;;;5050853;28;20109;-82
2022/03/12 09:16:44;;;;;;;10.95;2.75;;;19.70;49.40;;;;;;5049312;28;20044;-82
2022/03/12 09:19:10;;;;;;;9.15;2.53;;;19.80;47.50;;;;;;5051103;28;20083;-83
2022/03/12 09:21:37;;;;;;;8.27;2.28;;;19.90;47.50;;;;;;5050138;28;21368;-82
2022/03/12 09:24:03;;;;;;;12.15;2.85;;;19.80;47.90;;;;;;5051805;28;21000;-83
2022/03/12 09:26:29;;;;;;;11.95;2.70;;;20.60;46.90;;;;;;5047637;28;20029;-83
2022/03/12 09:28:54;;;;;;;8.32;2.25;;;20.40;46.00;;;;;;5056004;28;20030;-83
2022/03/12 09:31:20;;;;;;;7.82;2.38;;;20.30;47.10;;;;;;5037333;28;20029;-82
2022/03/12 09:33:46;;;;;;;7.80;2.10;;;20.40;45.50;;;;;;5037858;28;20154;-80
2022/03/12 09:36:12;;;;;;;8.32;2.60;;;20.40;44.90;;;;;;5023528;28;20038;-81
2022/03/12 09:38:38;;;;;;;9.43;2.45;;;20.50;45.90;;;;;;5033537;28;20128;-80
2022/03/12 09:41:05;;;;;;;10.43;2.70;;;20.80;45.00;;;;;;5035248;28;20084;-79
2022/03/12 09:43:30;;;;;;;7.68;2.50;;;20.30;44.50;;;;;;5052916;28;20055;-79
2022/03/12 09:45:57;;;;;;;9.82;2.83;;;20.90;44.20;;;;;;5050370;28;20097;-81
2022/03/12 09:48:23;;;;;;;7.35;2.13;;;20.50;43.70;;;;;;5041332;28;20053;-81
2022/03/12 09:50:49;;;;;;;8.90;2.53;;;20.10;44.20;;;;;;5042986;28;20053;-82
2022/03/12 09:53:14;;;;;;;11.27;1.77;;;19.80;45.00;;;;;;5038164;28;20068;-85
2022/03/12 09:55:40;;;;;;;13.02;3.20;;;19.10;48.00;;;;;;5035470;28;20322;-82
2022/03/12 09:58:06;;;;;;;10.60;2.28;;;19.60;46.20;;;;;;5033576;28;20037;-79
2022/03/12 10:00:32;;;;;;;5.75;2.08;;;18.80;48.10;;;;;;5040210;28;20407;-84
2022/03/12 10:02:58;;;;;;;11.15;2.75;;;18.90;46.00;;;;;;5037259;28;20037;-86
2022/03/12 10:05:24;;;;;;;10.10;2.53;;;19.40;46.40;;;;;;5035308;28;20029;-84
2022/03/12 10:07:49;;;;;;;9.55;2.35;;;19.80;45.10;;;;;;5035931;28;20021;-80
2022/03/12 10:10:17;;;;;;;4.00;1.75;;;19.70;43.90;;;;;;5042256;28;20025;-82
2022/03/12 10:12:44;;;;;;;10.10;2.55;;;19.70;46.30;;;;;;5044133;28;20025;-84
2022/03/12 10:15:12;;;;;;;8.27;2.40;;;19.90;45.20;;;;;;5043846;28;20032;-83
2022/03/12 10:17:39;;;;;;;10.52;2.28;;;19.50;44.10;;;;;;5047641;28;20045;-78
2022/03/12 10:20:08;;;;;;;7.28;2.22;;;18.80;45.70;;;;;;5044439;28;20029;-79
2022/03/12 10:22:34;;;;;;;7.18;1.95;;;18.30;48.40;;;;;;5042457;28;20033;-83
2022/03/12 10:25:00;;;;;;;7.00;1.60;;;17.20;49.70;;;;;;5036369;28;20049;-82
2022/03/12 10:27:26;;;;;;;6.95;1.58;;;16.50;51.30;;;;;;5036079;28;20025;-80
2022/03/12 10:29:52;;;;;;;10.23;2.10;;;16.00;53.20;;;;;;5036229;28;20090;-80
2022/03/12 10:32:23;;;;;;;6.60;1.90;;;15.80;55.10;;;;;;5034864;28;20022;-81
2022/03/12 10:34:52;;;;;;;7.40;1.38;;;15.80;54.50;;;;;;5035311;28;20025;-80
2022/03/12 10:37:24;;;;;;;5.82;1.30;;;15.50;55.60;;;;;;5035220;28;20380;-80
2022/03/12 10:40:09;;;;;;;5.07;1.33;;;15.30;55.10;;;;;;5031209;28;20063;-77
2022/03/12 10:42:37;;;;;;;6.03;1.58;;;15.30;55.30;;;;;;5031461;28;20026;-81
2022/03/12 10:45:17;;;;;;;9.55;1.70;;;15.30;55.30;;;;;;5039004;28;20021;-80
2022/03/12 10:47:50;;;;;;;;;;;15.20;55.60;;;;;;5042696;28;20037;-78
2022/03/12 10:50:20;;;;;;;5.55;1.38;;;15.30;55.00;;;;;;5041001;28;20010;-78
2022/03/12 10:52:52;;;;;;;6.75;1.60;;;15.20;55.00;;;;;;5033823;28;20032;-78
2022/03/12 10:55:30;;;;;;;9.10;1.83;;;14.90;56.10;;;;;;5032868;28;20120;-78
2022/03/12 10:58:15;;;;;;;8.55;1.80;;;15.00;55.50;;;;;;5034249;28;20018;-78
2022/03/12 11:00:55;;;;;;;8.30;1.63;;;15.00;55.50;;;;;;5034266;28;20026;-78
2022/03/12 11:03:23;;;;;;;8.82;1.50;;;14.70;54.10;;;;;;5029157;28;20029;-78
2022/03/12 11:05:50;;;;;;;6.43;1.00;;;14.80;56.30;;;;;;5032758;28;20041;-78
2022/03/12 11:08:22;;;;;;;8.65;2.30;;;15.10;55.20;;;;;;5035651;28;20033;-78
2022/03/12 11:10:59;;;;;;;6.45;1.55;;;15.20;52.60;;;;;;5030532;28;20018;-78
2022/03/12 11:13:40;;;;;;;4.97;1.27;;;15.10;52.30;;;;;;5035793;28;20055;-78
2022/03/12 11:16:24;;;;;;;6.00;1.83;;;15.20;51.10;;;;;;5033283;28;20019;-78
2022/03/12 11:18:52;;;;;;;7.88;1.63;;;15.00;50.60;;;;;;5033040;28;20075;-78
2022/03/12 11:21:37;;;;;;;3.92;0.82;;;15.20;51.60;;;;;;5034110;28;20136;-78
2022/03/12 11:24:26;;;;;;;7.43;1.30;;;15.20;52.50;;;;;;5034858;28;20092;-77
2022/03/12 11:27:03;;;;;;;5.63;1.38;;;14.80;52.80;;;;;;5031327;28;20029;-78
2022/03/12 11:29:30;;;;;;;5.28;1.48;;;14.70;52.90;;;;;;5032883;28;20048;-78
2022/03/12 11:31:58;;;;;;;8.15;1.58;;;14.80;54.10;;;;;;5035402;28;20018;-78
2022/03/12 11:34:25;;;;;;;5.03;1.17;;;15.00;53.30;;;;;;5027058;28;20026;-78
2022/03/12 11:36:57;;;;;;;3.75;1.80;;;14.90;53.60;;;;;;5030603;28;20025;-79
2022/03/12 11:39:40;;;;;;;7.60;1.55;;;15.00;53.20;;;;;;5036100;28;20029;-79
2022/03/12 11:42:11;;;;;;;7.82;2.58;;;15.00;52.90;;;;;;5034390;28;20022;-80
2022/03/12 11:44:41;;;;;;;8.25;1.50;;;15.20;53.10;;;;;;5024523;28;20042;-77
2022/03/12 11:47:08;;;;;;;4.45;1.23;;;15.20;53.00;;;;;;5015857;28;20029;-76
2022/03/12 11:49:34;;;;;;;6.03;1.27;;;15.10;52.30;;;;;;5015944;28;20021;-78
2022/03/12 11:52:00;;;;;;;10.43;2.90;;;15.00;51.50;;;;;;5024345;28;20821;-77
2022/03/12 11:54:26;;;;;;;9.13;1.50;;;14.80;51.40;;;;;;5030812;28;20065;-77
2022/03/12 11:56:52;;;;;;;11.60;3.00;;;14.80;51.80;;;;;;5017485;28;20037;-78
2022/03/12 11:59:19;;;;;;;9.35;1.63;;;15.10;52.30;;;;;;5035425;28;20098;-77
2022/03/12 12:02:01;;;;;;;6.22;1.20;;;15.60;51.10;;;;;;5027523;28;20096;-78
2022/03/12 12:04:30;;;;;;;4.57;1.15;;;15.50;50.10;;;;;;5027642;28;20038;-78
2022/03/12 12:06:57;;;;;;;2.83;1.10;;;15.50;49.10;;;;;;5025418;28;20033;-80
2022/03/12 12:09:22;;;;;;;4.90;1.58;;;15.50;50.70;;;;;;5028672;28;20045;-79
2022/03/12 12:11:48;;;;;;;5.10;1.30;;;15.40;50.80;;;;;;5027338;28;20030;-76
2022/03/12 12:14:14;;;;;;;7.28;1.27;;;15.30;49.90;;;;;;5024066;28;20114;-76
2022/03/12 12:16:43;;;;;;;8.80;1.50;;;15.30;51.00;;;;;;5018743;28;20053;-75
2022/03/12 12:19:09;;;;;;;4.88;1.13;;;14.90;51.00;;;;;;5034967;28;20064;-75
2022/03/12 12:21:35;;;;;;;5.72;1.35;;;14.90;50.60;;;;;;5031613;28;20025;-76
2022/03/12 12:24:26;;;;;;;5.85;1.00;;;15.30;50.30;;;;;;5026936;28;20038;-75
2022/03/12 12:27:09;;;;;;;5.53;1.35;;;15.60;50.60;;;;;;5021976;28;20029;-76
2022/03/12 12:29:48;;;;;;;3.83;1.00;;;15.40;49.50;;;;;;5029630;28;20440;-77
2022/03/12 12:32:20;;;;;;;9.80;1.80;;;14.90;50.00;;;;;;5030316;28;20032;-78
2022/03/12 12:35:04;;;;;;;7.97;1.65;;;14.70;49.30;;;;;;5020651;28;20034;-76
2022/03/12 12:37:43;;;;;;;5.88;1.85;;;14.90;51.50;;;;;;5028149;28;20060;-77
2022/03/12 12:40:20;;;;;;;6.88;1.17;;;15.20;50.80;;;;;;5032513;28;20139;-76
2022/03/12 12:42:46;;;;;;;4.05;1.17;;;15.30;51.20;;;;;;5031586;28;20081;-75
2022/03/12 12:45:13;;;;;;;6.45;1.40;;;15.20;49.30;;;;;;5034125;28;20057;-75
2022/03/12 12:47:39;;;;;;;7.15;1.30;;;15.00;49.40;;;;;;5043288;28;20025;-75
2022/03/12 12:50:05;;;;;;;7.35;1.73;;;14.80;47.40;;;;;;5029328;28;20055;-76
2022/03/12 12:52:32;;;;;;;4.13;1.23;;;15.00;49.60;;;;;;5029939;28;20029;-75
2022/03/12 12:55:05;;;;;;;7.22;1.33;;;14.80;49.80;;;;;;5033190;28;20510;-75
2022/03/12 12:57:40;;;;;;;6.30;1.13;;;14.90;51.30;;;;;;5031422;28;20101;-77
2022/03/12 13:00:20;;;;;;;7.00;1.13;;;14.80;50.10;;;;;;5028818;28;20037;-76